Capitol Logistics 2219


KIAD
Washington Dulles International Airport
Dulles, Virginia, US
KSDF
Louisville International Airport-Standiford Field
Louisville, Kentucky, US

Activity Log

Date Flight Route Aircraft Duration
01/28/2020 CPX2219 RNLDI4 OTTTO Q68 HVQ UNCKL MAUDD6 B763 1h 34m
01/18/2020 CPX2219 RNLDI4 OTTTO Q68 HVQ UNCKL MAUDD6 B763 1h 44m
11/18/2019 CPX2219 RNLDI4 OTTTO Q68 HVQ UNCKL MAUDD6 B763 1h 31m
03/25/2018 CPX906 RNLDI4 OTTTO Q68 HVQ UNCKL MAUDD4 B744 1h 12m

Route Details

Aircraft Information
Primary: Boeing 767-300BDSF
Backup: Boeing 757-200SF
Date Restrictions
Between:Nov 16, 2019
Dec 31, 2019
Route Data
Distance: 392nm
Sched. Duration: 1h 13m
Avg. Duration: 1h 30m (+17m)
Times Flown: 4
Recm'd Route: RNLDI4 OTTTO Q68 HVQ UNCKL MAUDD6
Planned Altitude: 32,000ft
Origin Wx: KIAD 061052Z 00000KT 7SM SCT100 BKN250 23/21 A3002 RMK AO2 SLP163 T02280211
Dest. Wx: KSDF 060956Z 23004KT 10SM FEW055 SCT140 BKN180 BKN250 23/21 A2999 RMK AO2 LTG DSNT N AND NW SLP149 FRQ LTGCGIC DSNT N-NE CB DSNT N-NE T02280211 $
Notes: SEASONAL FLIGHT | UPS SURGE OPS CONTRACT

Financial History
Total Freight: 432,751lbs
Average Load: 108,188lbs/flt
Fuel Used: 69,177lbs
Avg. Fuel Used: 17,294lbs/flt
Fuel Expense: $87,971
Avg. Fuel Expense: $21,993
Avg. Fuel Cost: $1.26/lbs
Total Gross Income: $697,977
Pilot Pay: $646
Total Expenses: $80,243
Total Revenue: $528,401
Average Revenue: $174,494.20